sensor_id;sensor_type;location;lat;lon;timestamp;P1;P2;P0
78999;PMS7003;68406;53.914;27.416;2023-03-14T14:18:47;5.8;4.7;3.6
78999;PMS7003;68406;53.914;27.416;2023-03-14T14:24:19;5.7;5;4.1
78999;PMS7003;68406;53.914;27.416;2023-03-14T14:29:00;4.1;3.6;3
78999;PMS7003;68406;53.914;27.416;2023-03-14T14:33:53;5.9;5;4
78999;PMS7003;68406;53.914;27.416;2023-03-14T14:39:19;6.3;5;4
78999;PMS7003;68406;53.914;27.416;2023-03-14T14:43:57;5.1;4.7;3.9
78999;PMS7003;68406;53.914;27.416;2023-03-14T14:48:37;4.8;4;3.3
78999;PMS7003;68406;53.914;27.416;2023-03-14T14:54:13;5.8;4.7;4
78999;PMS7003;68406;53.914;27.416;2023-03-14T14:59:20;4.9;4.1;3.4
78999;PMS7003;68406;53.914;27.416;2023-03-14T15:03:35;5.5;4.9;3.9
78999;PMS7003;68406;53.914;27.416;2023-03-14T15:08:52;4;3.5;3
78999;PMS7003;68406;53.914;27.416;2023-03-14T15:14:19;5.5;4.7;4
78999;PMS7003;68406;53.914;27.416;2023-03-14T15:19:20;6.5;5;4.1
78999;PMS7003;68406;53.914;27.416;2023-03-14T15:23:51;4.6;4.5;3.7
78999;PMS7003;68406;53.914;27.416;2023-03-14T15:28:47;5.6;4.7;3.8
78999;PMS7003;68406;53.914;27.416;2023-03-14T15:34:19;6.3;5.5;4.3
78999;PMS7003;68406;53.914;27.416;2023-03-14T15:39:05;5.8;5.1;4.2
78999;PMS7003;68406;53.914;27.416;2023-03-14T15:43:37;6.2;5;4.1
78999;PMS7003;68406;53.914;27.416;2023-03-14T15:48:59;6.8;5.8;4.6
78999;PMS7003;68406;53.914;27.416;2023-03-14T15:54:05;5.8;4.7;4
78999;PMS7003;68406;53.914;27.416;2023-03-14T15:58:37;6;5.1;4.2
78999;PMS7003;68406;53.914;27.416;2023-03-14T16:03:47;6.5;5.4;4.3
78999;PMS7003;68406;53.914;27.416;2023-03-14T16:09:19;5.5;4.1;3.5
78999;PMS7003;68406;53.914;27.416;2023-03-14T16:13:37;5.1;4.4;3.4
78999;PMS7003;68406;53.914;27.416;2023-03-14T16:19:13;5.5;4.7;3.8
78999;PMS7003;68406;53.914;27.416;2023-03-14T16:24:13;5.2;4.8;3.8
78999;PMS7003;68406;53.914;27.416;2023-03-14T16:29:13;5.5;4.2;3.4
78999;PMS7003;68406;53.914;27.416;2023-03-14T16:34:17;4.8;4.1;3.3
78999;PMS7003;68406;53.914;27.416;2023-03-14T16:38:37;5.7;5;4.1
78999;PMS7003;68406;53.914;27.416;2023-03-14T16:44:21;6;4.9;3.9
78999;PMS7003;68406;53.914;27.416;2023-03-14T16:49:07;5.2;4.9;4
78999;PMS7003;68406;53.914;27.416;2023-03-14T16:54:21;5.5;4.8;4.1
78999;PMS7003;68406;53.914;27.416;2023-03-14T16:58:59;5;4.3;3.4
78999;PMS7003;68406;53.914;27.416;2023-03-14T17:04:05;6.6;5.6;4.2
78999;PMS7003;68406;53.914;27.416;2023-03-14T17:08:37;5.6;5;3.7
78999;PMS7003;68406;53.914;27.416;2023-03-14T17:14:13;6.9;5.3;4
78999;PMS7003;68406;53.914;27.416;2023-03-14T17:18:53;6.5;5.4;4.5
78999;PMS7003;68406;53.914;27.416;2023-03-14T17:23:43;6.2;5.4;4.3
78999;PMS7003;68406;53.914;27.416;2023-03-14T17:29:21;6.5;5.6;4.4
78999;PMS7003;68406;53.914;27.416;2023-03-14T17:33:59;6.3;5.4;4.1
78999;PMS7003;68406;53.914;27.416;2023-03-14T17:38:59;5.7;4.8;3.9
78999;PMS7003;68406;53.914;27.416;2023-03-14T17:44:21;6.2;5.2;4.2
78999;PMS7003;68406;53.914;27.416;2023-03-14T17:48:59;5.8;4.9;3.9
78999;PMS7003;68406;53.914;27.416;2023-03-14T17:53:37;7;5.8;4.5
78999;PMS7003;68406;53.914;27.416;2023-03-14T17:59:07;6.6;5.3;4.3
78999;PMS7003;68406;53.914;27.416;2023-03-14T18:04:19;6.2;5.3;4.3
78999;PMS7003;68406;53.914;27.416;2023-03-14T18:08:57;5.2;4.9;3.8
78999;PMS7003;68406;53.914;27.416;2023-03-14T18:13:47;6.6;5.6;4.4
78999;PMS7003;68406;53.914;27.416;2023-03-14T18:19:21;5.7;4.9;4
78999;PMS7003;68406;53.914;27.416;2023-03-14T18:24:19;6.8;5.7;4.3
78999;PMS7003;68406;53.914;27.416;2023-03-14T18:28:51;7.2;6;5
78999;PMS7003;68406;53.914;27.416;2023-03-14T18:34:09;6.7;5.5;4.4
78999;PMS7003;68406;53.914;27.416;2023-03-14T18:39:19;6.9;6.2;4.8
78999;PMS7003;68406;53.914;27.416;2023-03-14T18:43:45;7.8;6.3;4.9
78999;PMS7003;68406;53.914;27.416;2023-03-14T18:48:45;6.7;6.1;4.9
78999;PMS7003;68406;53.914;27.416;2023-03-14T18:53:57;8.5;6.6;5.3
78999;PMS7003;68406;53.914;27.416;2023-03-14T18:59:05;7.9;6.4;5
78999;PMS7003;68406;53.914;27.416;2023-03-14T19:03:45;8.7;7.1;5.5
78999;PMS7003;68406;53.914;27.416;2023-03-14T19:08:57;8.1;6.5;5.1
78999;PMS7003;68406;53.914;27.416;2023-03-14T19:14:19;7.3;6.2;5.1
78999;PMS7003;68406;53.914;27.416;2023-03-14T19:18:37;6.6;5.8;4.1
78999;PMS7003;68406;53.914;27.416;2023-03-14T19:24:19;7.5;6.5;5.2
78999;PMS7003;68406;53.914;27.416;2023-03-14T19:29:11;7.7;6.4;5.3
78999;PMS7003;68406;53.914;27.416;2023-03-14T19:33:57;8.2;7.1;5.3
78999;PMS7003;68406;53.914;27.416;2023-03-14T19:39:05;7.3;6.1;4.8
78999;PMS7003;68406;53.914;27.416;2023-03-14T19:44:09;7.7;6.2;5.1
78999;PMS7003;68406;53.914;27.416;2023-03-14T19:48:37;6.9;6;4.9
78999;PMS7003;68406;53.914;27.416;2023-03-14T19:54:05;7.2;6.5;5.2
78999;PMS7003;68406;53.914;27.416;2023-03-14T19:59:19;6.1;4.3;3.3
78999;PMS7003;68406;53.914;27.416;2023-03-14T20:03:57;7;5.5;4.6
78999;PMS7003;68406;53.914;27.416;2023-03-14T20:09:19;6.6;5.6;4.3
78999;PMS7003;68406;53.914;27.416;2023-03-14T20:14:17;8.1;6.7;5.2
78999;PMS7003;68406;53.914;27.416;2023-03-14T20:19:11;7.7;6.3;4.8
78999;PMS7003;68406;53.914;27.416;2023-03-14T20:23:37;8.2;6.9;5.2
78999;PMS7003;68406;53.914;27.416;2023-03-14T20:28:37;7.3;6.4;5
78999;PMS7003;68406;53.914;27.416;2023-03-14T20:33:39;8.4;6.8;5.1
78999;PMS7003;68406;53.914;27.416;2023-03-14T20:39:05;7.2;6.2;4.9
78999;PMS7003;68406;53.914;27.416;2023-03-14T20:43:37;8.1;6.6;5.3
78999;PMS7003;68406;53.914;27.416;2023-03-14T20:49:19;8;7.1;5.6
78999;PMS7003;68406;53.914;27.416;2023-03-14T20:53:57;7.4;6;5
78999;PMS7003;68406;53.914;27.416;2023-03-14T20:58:45;8.2;6.4;5.2
78999;PMS7003;68406;53.914;27.416;2023-03-14T21:03:43;7.2;6.2;4.9
78999;PMS7003;68406;53.914;27.416;2023-03-14T21:09:19;7.2;6.4;4.9
78999;PMS7003;68406;53.914;27.416;2023-03-14T21:13:37;7.1;6.2;4.9
78999;PMS7003;68406;53.914;27.416;2023-03-14T21:18:37;7.7;6.7;5.3
78999;PMS7003;68406;53.914;27.416;2023-03-14T21:24:17;8.5;6.8;5.6
78999;PMS7003;68406;53.914;27.416;2023-03-14T21:29:05;7.1;5.6;4.6
78999;PMS7003;68406;53.914;27.416;2023-03-14T21:33:41;7.8;6.9;5.8
78999;PMS7003;68406;53.914;27.416;2023-03-14T21:38:57;8.5;7;5.3
78999;PMS7003;68406;53.914;27.416;2023-03-14T21:44:19;8;6.5;5.2
78999;PMS7003;68406;53.914;27.416;2023-03-14T21:49:05;8.2;6.8;5.5
78999;PMS7003;68406;53.914;27.416;2023-03-14T21:53:46;8.3;6.8;5.4
78999;PMS7003;68406;53.914;27.416;2023-03-14T21:58:37;7.6;6.6;5.2
78999;PMS7003;68406;53.914;27.416;2023-03-14T22:04:05;8.8;7;5.5
78999;PMS7003;68406;53.914;27.416;2023-03-14T22:08:37;8;6.5;5.1
78999;PMS7003;68406;53.914;27.416;2023-03-14T22:13:57;7.8;6.7;5.2
78999;PMS7003;68406;53.914;27.416;2023-03-14T22:19:19;6.2;5;3.9
78999;PMS7003;68406;53.914;27.416;2023-03-14T22:23:37;8.6;7.4;5.9
78999;PMS7003;68406;53.914;27.416;2023-03-14T22:29:19;8.6;7.1;5.4
78999;PMS7003;68406;53.914;27.416;2023-03-14T22:33:39;8.2;7.1;5.5
78999;PMS7003;68406;53.914;27.416;2023-03-14T22:38:49;8.9;7.3;5.8
78999;PMS7003;68406;53.914;27.416;2023-03-14T22:43:45;10.1;7.4;6
78999;PMS7003;68406;53.914;27.416;2023-03-14T22:48:37;9.6;7.5;5.7
78999;PMS7003;68406;53.914;27.416;2023-03-14T22:53:37;9.5;7.6;5.8
78999;PMS7003;68406;53.914;27.416;2023-03-14T22:59:05;9.1;6.8;5.3
78999;PMS7003;68406;53.914;27.416;2023-03-14T23:04:17;9.4;7.8;5.9
78999;PMS7003;68406;53.914;27.416;2023-03-14T23:08:57;9.7;8;6.2
78999;PMS7003;68406;53.914;27.416;2023-03-14T23:14:19;8.8;6.8;5
78999;PMS7003;68406;53.914;27.416;2023-03-14T23:18:40;9.3;8.1;6.3
78999;PMS7003;68406;53.914;27.416;2023-03-14T23:24:11;8.8;7.3;5.9
78999;PMS7003;68406;53.914;27.416;2023-03-14T23:28:37;9.5;7.6;5.8
78999;PMS7003;68406;53.914;27.416;2023-03-14T23:33:43;7.7;5.7;4.1
78999;PMS7003;68406;53.914;27.416;2023-03-14T23:39:06;9.1;7.2;5.6
78999;PMS7003;68406;53.914;27.416;2023-03-14T23:44:05;9.5;7.2;5.5
78999;PMS7003;68406;53.914;27.416;2023-03-14T23:48:45;8.4;6.9;5.6
78999;PMS7003;68406;53.914;27.416;2023-03-14T23:54:19;10.9;8.4;6.7
78999;PMS7003;68406;53.914;27.416;2023-03-14T23:59:19;9.7;7.8;6.1
